Tuesday, October 23, 2018, 8:41 PM EDT
Back to Local

KJFK, Kennedy International Airport

Location: Rosedale, NY, United States Lat: 40.633
Local Time: 8:41 PM EDT ( 0:41 GMT) Lon: -73.767
Time Zone: US/Eastern Elev: 13 ft

Show me the last for .
Show Decoded

2018-10-23 19:51 METAR KJFK 232351Z 30018KT 10SM FEW095 SCT110 13/03 A2998 RMK AO2 PK WND
                 32031/2316 RAE2258 SLP151 P0000 60000 T01330033 10172 20133 53021 =
2018-10-23 18:51 METAR KJFK 232251Z 31016G25KT 10SM -RA FEW055 BKN080 BKN120 15/05 A2994 RMK AO2
                 PK WND 32026/2247 RAB38 SLP139 P0000 T01500050 =
2018-10-23 17:51 METAR KJFK 232151Z 23011KT 10SM SCT043 SCT075 BKN090 BKN250 16/08 A2992 RMK AO2
                 SLP130 VCSH NW T01560078 =
2018-10-23 16:51 METAR KJFK 232051Z 19009KT 10SM SCT043 SCT120 SCT250 16/08 A2991 RMK AO2 SLP129
                 VIRGA W AND NW T01560078 56016 =
2018-10-23 15:51 METAR KJFK 231951Z 20007KT 10SM FEW043 FEW080 SCT250 17/07 A2993 RMK AO2 SLP133
                 T01670072 =
2018-10-23 14:51 METAR KJFK 231851Z 20008KT 10SM FEW040 FEW080 FEW250 16/08 A2994 RMK AO2 SLP138
                 T01610078 =
2018-10-23 13:51 METAR KJFK 231751Z 23008KT 10SM FEW040 FEW080 FEW250 16/07 A2996 RMK AO2 SLP146
                 T01610067 10167 20122 58031 =
2018-10-23 12:51 METAR KJFK 231651Z 23011KT 10SM SCT080 SCT250 16/08 A3000 RMK AO2 SLP157
                 T01560078 =
2018-10-23 11:51 METAR KJFK 231551Z 23009KT 10SM SCT085 BKN250 15/08 A3003 RMK AO2 SLP169
                 T01500083 =
2018-10-23 10:51 METAR KJFK 231451Z 23011KT 10SM BKN090 14/08 A3005 RMK AO2 SLP177 T01390083
                 58010 =
2018-10-23 09:51 METAR KJFK 231351Z 23009KT 10SM BKN090 13/08 A3007 RMK AO2 SLP182 T01330083 =
2018-10-23 08:51 METAR KJFK 231251Z 23012KT 10SM BKN095 BKN280 13/08 A3008 RMK AO2 SLP186
                 T01280083 =
2018-10-23 07:51 METAR KJFK 231151Z 22010KT 10SM BKN090 12/07 A3008 RMK AO2 SLP187 T01220072
                 10122 20094 56010 =
2018-10-23 06:51 METAR KJFK 231051Z 21008KT 10SM BKN080 12/07 A3009 RMK AO2 SLP189 T01170072 =
2018-10-23 05:51 METAR KJFK 230951Z 22007KT 10SM BKN090 11/07 A3011 RMK AO2 SLP194 T01110072 =
2018-10-23 04:51 METAR KJFK 230851Z 20007KT 10SM OVC095 11/07 A3012 RMK AO2 SLP197 T01110072
                 56018 =
2018-10-23 03:51 METAR KJFK 230751Z 20007KT 10SM OVC100 11/07 A3013 RMK AO2 SLP203 T01060072 =
2018-10-23 02:51 METAR KJFK 230651Z 21005KT 10SM OVC090 10/07 A3014 RMK AO2 SLP207 T01000067 =
2018-10-23 01:51 METAR KJFK 230551Z 21007KT 10SM BKN095 BKN250 09/06 A3017 RMK AO2 SLP215
                 T00890061 10100 20078 58009 =
2018-10-23 00:51 METAR KJFK 230451Z 22007KT 10SM SCT250 08/04 A3019 RMK AO2 SLP221 T00830044
                 401110039 =
2018-10-22 23:51 METAR KJFK 230351Z 23009KT 10SM SCT250 08/05 A3020 RMK AO2 SLP224 T00830050 =
2018-10-22 22:51 METAR KJFK 230251Z 22010KT 10SM BKN250 09/04 A3019 RMK AO2 SLP224 T00940044
                 50000 =
2018-10-22 21:51 METAR KJFK 230151Z 22009KT 10SM BKN250 09/04 A3020 RMK AO2 SLP225 T00940039 =
2018-10-22 20:51 METAR KJFK 230051Z 23014G18KT 10SM FEW090 BKN250 10/03 A3020 RMK AO2 SLP225
                 T01000028 =

Support USWX by starting your Amazon purchase here.